sensor_id;sensor_type;location;lat;lon;timestamp;P1;durP1;ratioP1;P2;durP2;ratioP2
69036;SDS011;58547;51.690;5.186;2022-07-03T00:00:08;7.00;;;4.45;;
69036;SDS011;58547;51.690;5.186;2022-07-03T00:02:34;6.50;;;3.78;;
69036;SDS011;58547;51.690;5.186;2022-07-03T00:07:24;7.07;;;3.87;;
69036;SDS011;58547;51.690;5.186;2022-07-03T00:12:15;5.70;;;3.50;;
69036;SDS011;58547;51.690;5.186;2022-07-03T00:19:31;7.77;;;3.87;;
69036;SDS011;58547;51.690;5.186;2022-07-03T00:24:30;16.13;;;3.90;;
69036;SDS011;58547;51.690;5.186;2022-07-03T00:27:00;6.65;;;3.90;;
69036;SDS011;58547;51.690;5.186;2022-07-03T00:29:29;5.15;;;3.05;;
69036;SDS011;58547;51.690;5.186;2022-07-03T00:32:00;6.15;;;3.17;;
69036;SDS011;58547;51.690;5.186;2022-07-03T00:34:26;7.38;;;3.10;;
69036;SDS011;58547;51.690;5.186;2022-07-03T00:36:54;5.82;;;3.10;;
69036;SDS011;58547;51.690;5.186;2022-07-03T00:39:22;7.63;;;3.60;;
69036;SDS011;58547;51.690;5.186;2022-07-03T00:41:48;3.88;;;2.95;;
69036;SDS011;58547;51.690;5.186;2022-07-03T00:44:25;7.95;;;3.70;;
69036;SDS011;58547;51.690;5.186;2022-07-03T00:46:53;5.32;;;3.33;;
69036;SDS011;58547;51.690;5.186;2022-07-03T00:49:20;6.00;;;3.42;;
69036;SDS011;58547;51.690;5.186;2022-07-03T00:51:50;6.40;;;3.38;;
69036;SDS011;58547;51.690;5.186;2022-07-03T00:54:19;6.95;;;3.90;;
69036;SDS011;58547;51.690;5.186;2022-07-03T00:56:49;11.43;;;4.65;;
69036;SDS011;58547;51.690;5.186;2022-07-03T00:59:17;6.30;;;4.35;;
69036;SDS011;58547;51.690;5.186;2022-07-03T01:04:17;8.48;;;4.80;;
69036;SDS011;58547;51.690;5.186;2022-07-03T01:06:59;7.60;;;3.85;;
69036;SDS011;58547;51.690;5.186;2022-07-03T01:09:40;7.93;;;4.20;;
69036;SDS011;58547;51.690;5.186;2022-07-03T01:23:31;9.18;;;5.05;;
69036;SDS011;58547;51.690;5.186;2022-07-03T01:26:24;10.70;;;6.18;;
69036;SDS011;58547;51.690;5.186;2022-07-03T01:28:52;9.23;;;5.80;;
69036;SDS011;58547;51.690;5.186;2022-07-03T01:33:45;10.25;;;4.90;;
69036;SDS011;58547;51.690;5.186;2022-07-03T01:36:15;9.43;;;5.10;;
69036;SDS011;58547;51.690;5.186;2022-07-03T01:38:41;7.10;;;4.85;;
69036;SDS011;58547;51.690;5.186;2022-07-03T01:41:07;8.95;;;4.68;;
69036;SDS011;58547;51.690;5.186;2022-07-03T01:43:36;10.77;;;5.70;;
69036;SDS011;58547;51.690;5.186;2022-07-03T01:46:12;8.00;;;4.57;;
69036;SDS011;58547;51.690;5.186;2022-07-03T01:48:41;7.75;;;4.22;;
69036;SDS011;58547;51.690;5.186;2022-07-03T01:51:07;7.80;;;4.32;;
69036;SDS011;58547;51.690;5.186;2022-07-03T01:53:37;7.10;;;4.47;;
69036;SDS011;58547;51.690;5.186;2022-07-03T01:56:12;9.10;;;4.20;;
69036;SDS011;58547;51.690;5.186;2022-07-03T02:01:06;6.63;;;4.15;;
69036;SDS011;58547;51.690;5.186;2022-07-03T02:03:51;10.13;;;3.67;;
69036;SDS011;58547;51.690;5.186;2022-07-03T02:09:22;7.78;;;3.25;;
69036;SDS011;58547;51.690;5.186;2022-07-03T02:11:54;5.88;;;3.65;;
69036;SDS011;58547;51.690;5.186;2022-07-03T02:17:01;4.88;;;3.33;;
69036;SDS011;58547;51.690;5.186;2022-07-03T02:19:38;7.40;;;3.75;;
69036;SDS011;58547;51.690;5.186;2022-07-03T02:22:06;10.65;;;4.50;;
69036;SDS011;58547;51.690;5.186;2022-07-03T02:24:34;4.50;;;3.60;;
69036;SDS011;58547;51.690;5.186;2022-07-03T02:27:06;7.63;;;3.92;;
69036;SDS011;58547;51.690;5.186;2022-07-03T02:29:41;10.35;;;3.95;;
69036;SDS011;58547;51.690;5.186;2022-07-03T02:32:12;9.40;;;5.20;;
69036;SDS011;58547;51.690;5.186;2022-07-03T02:34:42;5.18;;;3.45;;
69036;SDS011;58547;51.690;5.186;2022-07-03T02:37:14;8.48;;;4.68;;
69036;SDS011;58547;51.690;5.186;2022-07-03T02:39:50;6.07;;;3.78;;
69036;SDS011;58547;51.690;5.186;2022-07-03T02:45:12;7.43;;;4.05;;
69036;SDS011;58547;51.690;5.186;2022-07-03T02:50:25;9.57;;;3.88;;
69036;SDS011;58547;51.690;5.186;2022-07-03T02:55:39;8.10;;;3.80;;
69036;SDS011;58547;51.690;5.186;2022-07-03T03:00:57;8.80;;;3.67;;
69036;SDS011;58547;51.690;5.186;2022-07-03T03:03:26;5.63;;;4.22;;
69036;SDS011;58547;51.690;5.186;2022-07-03T03:05:53;4.72;;;3.47;;
69036;SDS011;58547;51.690;5.186;2022-07-03T03:08:35;5.97;;;3.45;;
69036;SDS011;58547;51.690;5.186;2022-07-03T03:11:06;9.50;;;4.65;;
69036;SDS011;58547;51.690;5.186;2022-07-03T03:13:33;6.30;;;3.53;;
69036;SDS011;58547;51.690;5.186;2022-07-03T03:18:33;5.95;;;3.95;;
69036;SDS011;58547;51.690;5.186;2022-07-03T03:21:01;11.88;;;4.63;;
69036;SDS011;58547;51.690;5.186;2022-07-03T03:26:17;5.15;;;3.53;;
69036;SDS011;58547;51.690;5.186;2022-07-03T03:28:44;7.00;;;3.63;;
69036;SDS011;58547;51.690;5.186;2022-07-03T03:33:36;4.88;;;3.60;;
69036;SDS011;58547;51.690;5.186;2022-07-03T03:36:05;5.68;;;3.80;;
69036;SDS011;58547;51.690;5.186;2022-07-03T03:38:31;5.25;;;4.05;;
69036;SDS011;58547;51.690;5.186;2022-07-03T03:43:22;7.30;;;3.50;;
69036;SDS011;58547;51.690;5.186;2022-07-03T03:45:47;5.32;;;2.95;;
69036;SDS011;58547;51.690;5.186;2022-07-03T03:48:13;6.47;;;4.10;;
69036;SDS011;58547;51.690;5.186;2022-07-03T03:50:38;6.03;;;3.58;;
69036;SDS011;58547;51.690;5.186;2022-07-03T03:53:04;4.18;;;2.92;;
69036;SDS011;58547;51.690;5.186;2022-07-03T03:57:54;6.07;;;3.20;;
69036;SDS011;58547;51.690;5.186;2022-07-03T04:02:45;5.07;;;3.00;;
69036;SDS011;58547;51.690;5.186;2022-07-03T04:05:10;5.82;;;3.38;;
69036;SDS011;58547;51.690;5.186;2022-07-03T04:10:01;7.73;;;3.00;;
69036;SDS011;58547;51.690;5.186;2022-07-03T04:12:26;6.05;;;3.10;;
69036;SDS011;58547;51.690;5.186;2022-07-03T04:17:17;3.70;;;2.70;;
69036;SDS011;58547;51.690;5.186;2022-07-03T04:22:07;4.97;;;2.95;;
69036;SDS011;58547;51.690;5.186;2022-07-03T04:24:35;10.07;;;3.35;;
69036;SDS011;58547;51.690;5.186;2022-07-03T04:27:00;4.93;;;2.97;;
69036;SDS011;58547;51.690;5.186;2022-07-03T04:31:51;7.23;;;3.20;;
69036;SDS011;58547;51.690;5.186;2022-07-03T04:36:41;5.23;;;3.00;;
69036;SDS011;58547;51.690;5.186;2022-07-03T04:39:07;5.30;;;3.30;;
69036;SDS011;58547;51.690;5.186;2022-07-03T04:41:32;8.57;;;3.83;;
69036;SDS011;58547;51.690;5.186;2022-07-03T04:46:22;6.80;;;3.73;;
69036;SDS011;58547;51.690;5.186;2022-07-03T04:51:13;9.13;;;3.53;;
69036;SDS011;58547;51.690;5.186;2022-07-03T04:53:38;4.88;;;3.22;;
69036;SDS011;58547;51.690;5.186;2022-07-03T04:56:04;6.72;;;3.42;;
69036;SDS011;58547;51.690;5.186;2022-07-03T04:58:29;9.05;;;3.75;;
69036;SDS011;58547;51.690;5.186;2022-07-03T05:00:55;9.43;;;3.85;;
69036;SDS011;58547;51.690;5.186;2022-07-03T05:03:20;3.38;;;2.50;;
69036;SDS011;58547;51.690;5.186;2022-07-03T05:05:45;6.15;;;3.22;;
69036;SDS011;58547;51.690;5.186;2022-07-03T05:10:36;7.97;;;3.30;;
69036;SDS011;58547;51.690;5.186;2022-07-03T05:15:26;6.70;;;3.83;;
69036;SDS011;58547;51.690;5.186;2022-07-03T05:20:17;8.63;;;3.43;;
69036;SDS011;58547;51.690;5.186;2022-07-03T05:22:55;7.68;;;3.50;;
69036;SDS011;58547;51.690;5.186;2022-07-03T05:25:22;9.38;;;3.55;;
69036;SDS011;58547;51.690;5.186;2022-07-03T05:30:15;8.40;;;3.30;;
69036;SDS011;58547;51.690;5.186;2022-07-03T05:35:06;11.77;;;3.53;;
69036;SDS011;58547;51.690;5.186;2022-07-03T05:39:57;10.10;;;3.33;;
69036;SDS011;58547;51.690;5.186;2022-07-03T05:42:22;6.47;;;3.30;;
69036;SDS011;58547;51.690;5.186;2022-07-03T05:47:13;13.10;;;3.37;;
69036;SDS011;58547;51.690;5.186;2022-07-03T05:52:03;7.90;;;2.93;;
69036;SDS011;58547;51.690;5.186;2022-07-03T05:56:54;5.50;;;3.28;;
69036;SDS011;58547;51.690;5.186;2022-07-03T06:01:44;9.03;;;3.47;;
69036;SDS011;58547;51.690;5.186;2022-07-03T06:06:35;5.73;;;3.00;;
69036;SDS011;58547;51.690;5.186;2022-07-03T06:11:26;7.47;;;3.53;;
69036;SDS011;58547;51.690;5.186;2022-07-03T06:16:16;8.83;;;3.13;;
69036;SDS011;58547;51.690;5.186;2022-07-03T06:21:07;7.07;;;3.43;;
69036;SDS011;58547;51.690;5.186;2022-07-03T06:25:57;7.97;;;3.03;;
69036;SDS011;58547;51.690;5.186;2022-07-03T06:30:48;8.83;;;3.33;;
69036;SDS011;58547;51.690;5.186;2022-07-03T06:35:38;8.30;;;3.07;;
69036;SDS011;58547;51.690;5.186;2022-07-03T06:40:30;8.55;;;3.55;;
69036;SDS011;58547;51.690;5.186;2022-07-03T06:45:20;4.47;;;2.33;;
69036;SDS011;58547;51.690;5.186;2022-07-03T06:50:11;12.00;;;2.93;;
69036;SDS011;58547;51.690;5.186;2022-07-03T06:55:02;9.55;;;3.05;;
69036;SDS011;58547;51.690;5.186;2022-07-03T06:59:53;6.68;;;2.80;;
69036;SDS011;58547;51.690;5.186;2022-07-03T07:04:43;8.63;;;2.97;;
69036;SDS011;58547;51.690;5.186;2022-07-03T07:09:34;9.33;;;2.70;;
69036;SDS011;58547;51.690;5.186;2022-07-03T07:14:24;6.93;;;2.53;;
69036;SDS011;58547;51.690;5.186;2022-07-03T07:19:15;9.77;;;2.87;;
69036;SDS011;58547;51.690;5.186;2022-07-03T07:24:06;8.45;;;2.45;;
69036;SDS011;58547;51.690;5.186;2022-07-03T07:31:21;6.57;;;2.37;;
69036;SDS011;58547;51.690;5.186;2022-07-03T07:36:12;7.97;;;2.83;;
69036;SDS011;58547;51.690;5.186;2022-07-03T07:41:02;10.17;;;2.70;;
69036;SDS011;58547;51.690;5.186;2022-07-03T07:43:28;9.55;;;2.80;;
69036;SDS011;58547;51.690;5.186;2022-07-03T07:48:18;6.57;;;2.43;;
69036;SDS011;58547;51.690;5.186;2022-07-03T07:55:34;7.63;;;2.70;;
69036;SDS011;58547;51.690;5.186;2022-07-03T07:57:59;7.10;;;2.22;;
69036;SDS011;58547;51.690;5.186;2022-07-03T08:05:34;14.80;;;3.35;;
69036;SDS011;58547;51.690;5.186;2022-07-03T08:08:06;7.05;;;2.42;;
69036;SDS011;58547;51.690;5.186;2022-07-03T08:10:43;7.32;;;2.97;;
69036;SDS011;58547;51.690;5.186;2022-07-03T08:13:13;6.13;;;2.58;;
69036;SDS011;58547;51.690;5.186;2022-07-03T08:15:41;8.30;;;2.67;;
69036;SDS011;58547;51.690;5.186;2022-07-03T08:18:06;9.07;;;2.30;;
69036;SDS011;58547;51.690;5.186;2022-07-03T08:20:32;6.55;;;3.10;;
69036;SDS011;58547;51.690;5.186;2022-07-03T08:22:58;8.13;;;3.10;;
69036;SDS011;58547;51.690;5.186;2022-07-03T08:25:24;7.15;;;2.78;;
69036;SDS011;58547;51.690;5.186;2022-07-03T08:27:50;8.18;;;3.10;;
69036;SDS011;58547;51.690;5.186;2022-07-03T08:30:15;9.55;;;3.13;;
69036;SDS011;58547;51.690;5.186;2022-07-03T08:32:49;9.55;;;3.65;;
69036;SDS011;58547;51.690;5.186;2022-07-03T08:35:15;9.70;;;3.03;;
69036;SDS011;58547;51.690;5.186;2022-07-03T08:37:41;9.68;;;2.88;;
69036;SDS011;58547;51.690;5.186;2022-07-03T08:40:08;6.95;;;2.47;;
69036;SDS011;58547;51.690;5.186;2022-07-03T08:42:35;7.53;;;2.50;;
69036;SDS011;58547;51.690;5.186;2022-07-03T08:45:02;8.05;;;2.83;;
69036;SDS011;58547;51.690;5.186;2022-07-03T08:47:27;7.50;;;3.10;;
69036;SDS011;58547;51.690;5.186;2022-07-03T08:49:56;7.30;;;2.83;;
69036;SDS011;58547;51.690;5.186;2022-07-03T08:52:23;6.43;;;2.55;;
69036;SDS011;58547;51.690;5.186;2022-07-03T08:54:49;5.70;;;3.40;;
69036;SDS011;58547;51.690;5.186;2022-07-03T08:57:15;5.25;;;2.80;;
69036;SDS011;58547;51.690;5.186;2022-07-03T08:59:41;5.38;;;2.80;;
69036;SDS011;58547;51.690;5.186;2022-07-03T09:02:08;6.70;;;2.40;;
69036;SDS011;58547;51.690;5.186;2022-07-03T09:04:34;12.57;;;3.10;;
69036;SDS011;58547;51.690;5.186;2022-07-03T09:06:59;6.20;;;2.83;;
69036;SDS011;58547;51.690;5.186;2022-07-03T09:09:25;4.40;;;2.60;;
69036;SDS011;58547;51.690;5.186;2022-07-03T09:11:51;6.28;;;2.28;;
69036;SDS011;58547;51.690;5.186;2022-07-03T09:14:17;5.72;;;2.40;;
69036;SDS011;58547;51.690;5.186;2022-07-03T09:16:43;5.80;;;2.60;;
69036;SDS011;58547;51.690;5.186;2022-07-03T09:19:08;7.78;;;2.65;;
69036;SDS011;58547;51.690;5.186;2022-07-03T09:21:40;5.25;;;2.92;;
69036;SDS011;58547;51.690;5.186;2022-07-03T09:24:07;6.82;;;2.55;;
69036;SDS011;58547;51.690;5.186;2022-07-03T09:26:33;8.00;;;2.13;;
69036;SDS011;58547;51.690;5.186;2022-07-03T09:28:59;4.05;;;2.40;;
69036;SDS011;58547;51.690;5.186;2022-07-03T09:31:26;3.35;;;2.00;;
69036;SDS011;58547;51.690;5.186;2022-07-03T09:41:56;6.80;;;2.83;;
69036;SDS011;58547;51.690;5.186;2022-07-03T09:44:39;8.02;;;2.22;;
69036;SDS011;58547;51.690;5.186;2022-07-03T09:49:53;8.00;;;2.63;;
69036;SDS011;58547;51.690;5.186;2022-07-03T09:57:34;4.53;;;2.17;;
69036;SDS011;58547;51.690;5.186;2022-07-03T10:00:10;7.45;;;2.15;;
69036;SDS011;58547;51.690;5.186;2022-07-03T10:05:21;4.50;;;2.05;;
69036;SDS011;58547;51.690;5.186;2022-07-03T10:07:56;3.83;;;1.80;;
69036;SDS011;58547;51.690;5.186;2022-07-03T10:10:26;5.30;;;1.80;;
69036;SDS011;58547;51.690;5.186;2022-07-03T10:12:54;3.15;;;1.55;;
69036;SDS011;58547;51.690;5.186;2022-07-03T10:15:20;5.30;;;1.33;;
69036;SDS011;58547;51.690;5.186;2022-07-03T10:17:48;2.53;;;1.35;;
69036;SDS011;58547;51.690;5.186;2022-07-03T10:20:15;5.20;;;1.30;;
69036;SDS011;58547;51.690;5.186;2022-07-03T10:22:45;4.75;;;1.13;;
69036;SDS011;58547;51.690;5.186;2022-07-03T10:25:13;5.05;;;1.40;;
69036;SDS011;58547;51.690;5.186;2022-07-03T10:27:39;4.18;;;1.35;;
69036;SDS011;58547;51.690;5.186;2022-07-03T10:30:05;3.75;;;1.30;;
69036;SDS011;58547;51.690;5.186;2022-07-03T10:32:32;1.83;;;0.70;;
69036;SDS011;58547;51.690;5.186;2022-07-03T10:34:58;4.05;;;1.23;;
69036;SDS011;58547;51.690;5.186;2022-07-03T10:37:23;4.35;;;1.58;;
69036;SDS011;58547;51.690;5.186;2022-07-03T10:40:02;4.53;;;1.08;;
69036;SDS011;58547;51.690;5.186;2022-07-03T10:42:56;5.95;;;1.45;;
69036;SDS011;58547;51.690;5.186;2022-07-03T10:48:50;2.42;;;1.17;;
69036;SDS011;58547;51.690;5.186;2022-07-03T10:51:15;4.65;;;1.23;;
69036;SDS011;58547;51.690;5.186;2022-07-03T10:53:40;5.85;;;1.50;;
69036;SDS011;58547;51.690;5.186;2022-07-03T10:56:05;4.03;;;0.90;;
69036;SDS011;58547;51.690;5.186;2022-07-03T10:58:31;3.22;;;0.77;;
69036;SDS011;58547;51.690;5.186;2022-07-03T11:00:56;3.10;;;0.68;;
69036;SDS011;58547;51.690;5.186;2022-07-03T11:06:18;4.38;;;1.65;;
69036;SDS011;58547;51.690;5.186;2022-07-03T11:09:02;3.63;;;1.27;;
69036;SDS011;58547;51.690;5.186;2022-07-03T11:14:24;4.40;;;1.10;;
69036;SDS011;58547;51.690;5.186;2022-07-03T11:19:40;3.47;;;1.15;;
69036;SDS011;58547;51.690;5.186;2022-07-03T11:22:07;3.55;;;1.52;;
69036;SDS011;58547;51.690;5.186;2022-07-03T11:27:12;4.07;;;1.10;;
69036;SDS011;58547;51.690;5.186;2022-07-03T11:29:38;2.70;;;1.48;;
69036;SDS011;58547;51.690;5.186;2022-07-03T11:38:26;4.80;;;1.30;;
69036;SDS011;58547;51.690;5.186;2022-07-03T11:40:54;5.43;;;1.70;;
69036;SDS011;58547;51.690;5.186;2022-07-03T11:43:20;4.13;;;1.40;;
69036;SDS011;58547;51.690;5.186;2022-07-03T11:45:47;6.05;;;1.38;;
69036;SDS011;58547;51.690;5.186;2022-07-03T11:48:14;4.60;;;1.48;;
69036;SDS011;58547;51.690;5.186;2022-07-03T11:50:41;5.22;;;1.10;;
69036;SDS011;58547;51.690;5.186;2022-07-03T11:53:23;7.97;;;1.95;;
69036;SDS011;58547;51.690;5.186;2022-07-03T11:55:57;5.88;;;1.80;;
69036;SDS011;58547;51.690;5.186;2022-07-03T11:58:25;6.22;;;1.83;;
69036;SDS011;58547;51.690;5.186;2022-07-03T12:01:00;3.08;;;1.70;;
69036;SDS011;58547;51.690;5.186;2022-07-03T12:03:26;5.38;;;1.90;;
69036;SDS011;58547;51.690;5.186;2022-07-03T12:05:52;4.50;;;1.70;;
69036;SDS011;58547;51.690;5.186;2022-07-03T12:08:31;3.67;;;1.73;;
69036;SDS011;58547;51.690;5.186;2022-07-03T12:11:00;4.82;;;1.50;;
69036;SDS011;58547;51.690;5.186;2022-07-03T12:13:32;2.40;;;1.30;;
69036;SDS011;58547;51.690;5.186;2022-07-03T12:16:02;1.98;;;1.23;;
69036;SDS011;58547;51.690;5.186;2022-07-03T12:18:40;2.00;;;1.33;;
69036;SDS011;58547;51.690;5.186;2022-07-03T12:21:08;4.13;;;1.70;;
69036;SDS011;58547;51.690;5.186;2022-07-03T12:23:44;7.53;;;2.78;;
69036;SDS011;58547;51.690;5.186;2022-07-03T12:26:11;8.90;;;2.45;;
69036;SDS011;58547;51.690;5.186;2022-07-03T12:28:37;4.82;;;2.47;;
69036;SDS011;58547;51.690;5.186;2022-07-03T12:31:02;2.90;;;1.65;;
69036;SDS011;58547;51.690;5.186;2022-07-03T12:33:28;2.58;;;2.05;;
69036;SDS011;58547;51.690;5.186;2022-07-03T12:36:05;3.30;;;2.13;;
69036;SDS011;58547;51.690;5.186;2022-07-03T12:38:32;5.30;;;2.10;;
69036;SDS011;58547;51.690;5.186;2022-07-03T12:41:16;3.08;;;1.70;;
69036;SDS011;58547;51.690;5.186;2022-07-03T12:43:44;10.25;;;2.03;;
69036;SDS011;58547;51.690;5.186;2022-07-03T12:46:18;3.65;;;1.55;;
69036;SDS011;58547;51.690;5.186;2022-07-03T12:51:38;3.70;;;1.58;;
69036;SDS011;58547;51.690;5.186;2022-07-03T12:54:05;2.63;;;1.60;;
69036;SDS011;58547;51.690;5.186;2022-07-03T12:56:35;3.22;;;1.30;;
69036;SDS011;58547;51.690;5.186;2022-07-03T12:59:02;3.42;;;1.83;;
69036;SDS011;58547;51.690;5.186;2022-07-03T13:01:43;5.95;;;1.77;;
69036;SDS011;58547;51.690;5.186;2022-07-03T13:04:32;4.60;;;1.90;;
69036;SDS011;58547;51.690;5.186;2022-07-03T13:06:59;6.13;;;1.92;;
69036;SDS011;58547;51.690;5.186;2022-07-03T13:09:26;4.72;;;1.70;;
69036;SDS011;58547;51.690;5.186;2022-07-03T13:11:51;6.47;;;1.65;;
69036;SDS011;58547;51.690;5.186;2022-07-03T13:14:17;3.95;;;1.85;;
69036;SDS011;58547;51.690;5.186;2022-07-03T13:16:44;8.27;;;1.63;;
69036;SDS011;58547;51.690;5.186;2022-07-03T13:19:12;4.00;;;2.15;;
69036;SDS011;58547;51.690;5.186;2022-07-03T13:21:39;4.28;;;2.17;;
69036;SDS011;58547;51.690;5.186;2022-07-03T13:24:05;3.53;;;1.88;;
69036;SDS011;58547;51.690;5.186;2022-07-03T13:26:31;3.65;;;1.92;;
69036;SDS011;58547;51.690;5.186;2022-07-03T13:28:57;5.15;;;1.90;;
69036;SDS011;58547;51.690;5.186;2022-07-03T13:31:22;4.57;;;1.70;;
69036;SDS011;58547;51.690;5.186;2022-07-03T13:33:47;6.25;;;2.00;;
69036;SDS011;58547;51.690;5.186;2022-07-03T13:36:12;5.55;;;1.40;;
69036;SDS011;58547;51.690;5.186;2022-07-03T13:38:38;3.90;;;1.50;;
69036;SDS011;58547;51.690;5.186;2022-07-03T13:41:03;5.18;;;1.75;;
69036;SDS011;58547;51.690;5.186;2022-07-03T13:43:28;5.93;;;1.38;;
69036;SDS011;58547;51.690;5.186;2022-07-03T13:45:54;5.20;;;1.50;;
69036;SDS011;58547;51.690;5.186;2022-07-03T13:48:19;4.35;;;1.55;;
69036;SDS011;58547;51.690;5.186;2022-07-03T13:50:45;4.75;;;1.83;;
69036;SDS011;58547;51.690;5.186;2022-07-03T13:53:11;4.05;;;1.63;;
69036;SDS011;58547;51.690;5.186;2022-07-03T13:55:37;6.55;;;1.83;;
69036;SDS011;58547;51.690;5.186;2022-07-03T13:58:02;3.58;;;1.63;;
69036;SDS011;58547;51.690;5.186;2022-07-03T14:00:29;5.35;;;1.50;;
69036;SDS011;58547;51.690;5.186;2022-07-03T14:02:55;3.78;;;1.60;;
69036;SDS011;58547;51.690;5.186;2022-07-03T14:05:20;4.00;;;1.63;;
69036;SDS011;58547;51.690;5.186;2022-07-03T14:07:46;4.40;;;1.38;;
69036;SDS011;58547;51.690;5.186;2022-07-03T14:10:12;4.05;;;1.63;;
69036;SDS011;58547;51.690;5.186;2022-07-03T14:12:37;2.53;;;1.40;;
69036;SDS011;58547;51.690;5.186;2022-07-03T14:15:03;3.35;;;1.27;;
69036;SDS011;58547;51.690;5.186;2022-07-03T14:17:28;5.53;;;1.58;;
69036;SDS011;58547;51.690;5.186;2022-07-03T14:19:54;6.90;;;1.50;;
69036;SDS011;58547;51.690;5.186;2022-07-03T14:22:19;7.47;;;1.42;;
69036;SDS011;58547;51.690;5.186;2022-07-03T14:24:44;3.00;;;1.20;;
69036;SDS011;58547;51.690;5.186;2022-07-03T14:27:10;1.85;;;0.90;;
69036;SDS011;58547;51.690;5.186;2022-07-03T14:29:54;3.88;;;1.48;;
69036;SDS011;58547;51.690;5.186;2022-07-03T14:32:38;3.85;;;1.35;;
69036;SDS011;58547;51.690;5.186;2022-07-03T14:35:03;3.85;;;1.52;;
69036;SDS011;58547;51.690;5.186;2022-07-03T14:37:29;4.10;;;1.23;;
69036;SDS011;58547;51.690;5.186;2022-07-03T14:39:55;5.95;;;1.35;;
69036;SDS011;58547;51.690;5.186;2022-07-03T14:42:21;5.40;;;1.38;;
69036;SDS011;58547;51.690;5.186;2022-07-03T14:44:46;5.03;;;1.05;;
69036;SDS011;58547;51.690;5.186;2022-07-03T14:47:12;3.83;;;1.20;;
69036;SDS011;58547;51.690;5.186;2022-07-03T14:49:37;6.40;;;1.50;;
69036;SDS011;58547;51.690;5.186;2022-07-03T14:52:03;6.93;;;1.00;;
69036;SDS011;58547;51.690;5.186;2022-07-03T14:54:30;5.40;;;1.10;;
69036;SDS011;58547;51.690;5.186;2022-07-03T14:57:05;1.85;;;0.90;;
69036;SDS011;58547;51.690;5.186;2022-07-03T15:02:22;2.88;;;0.95;;
69036;SDS011;58547;51.690;5.186;2022-07-03T15:05:06;2.47;;;1.00;;
69036;SDS011;58547;51.690;5.186;2022-07-03T15:07:34;3.08;;;0.93;;
69036;SDS011;58547;51.690;5.186;2022-07-03T15:10:09;6.20;;;1.48;;
69036;SDS011;58547;51.690;5.186;2022-07-03T15:12:49;5.03;;;0.75;;
69036;SDS011;58547;51.690;5.186;2022-07-03T15:15:16;3.30;;;0.87;;
69036;SDS011;58547;51.690;5.186;2022-07-03T15:17:43;2.72;;;0.80;;
69036;SDS011;58547;51.690;5.186;2022-07-03T15:20:09;7.82;;;1.20;;
69036;SDS011;58547;51.690;5.186;2022-07-03T15:22:41;1.95;;;1.23;;
69036;SDS011;58547;51.690;5.186;2022-07-03T15:25:08;2.88;;;0.85;;
69036;SDS011;58547;51.690;5.186;2022-07-03T15:27:36;3.58;;;0.90;;
69036;SDS011;58547;51.690;5.186;2022-07-03T15:30:02;3.65;;;1.10;;
69036;SDS011;58547;51.690;5.186;2022-07-03T15:32:28;3.47;;;0.80;;
69036;SDS011;58547;51.690;5.186;2022-07-03T15:34:54;8.20;;;1.20;;
69036;SDS011;58547;51.690;5.186;2022-07-03T15:40:16;2.05;;;0.63;;
69036;SDS011;58547;51.690;5.186;2022-07-03T15:53:04;2.13;;;0.47;;
69036;SDS011;58547;51.690;5.186;2022-07-03T15:55:32;5.10;;;0.85;;
69036;SDS011;58547;51.690;5.186;2022-07-03T15:58:04;3.33;;;0.75;;
69036;SDS011;58547;51.690;5.186;2022-07-03T16:00:33;3.30;;;0.50;;
69036;SDS011;58547;51.690;5.186;2022-07-03T16:05:41;3.47;;;0.68;;
69036;SDS011;58547;51.690;5.186;2022-07-03T16:08:09;3.15;;;0.90;;
69036;SDS011;58547;51.690;5.186;2022-07-03T16:10:37;3.38;;;1.30;;
69036;SDS011;58547;51.690;5.186;2022-07-03T16:13:03;1.98;;;0.75;;
69036;SDS011;58547;51.690;5.186;2022-07-03T16:15:33;4.75;;;1.13;;
69036;SDS011;58547;51.690;5.186;2022-07-03T16:18:08;2.60;;;0.90;;
69036;SDS011;58547;51.690;5.186;2022-07-03T16:20:35;2.28;;;0.70;;
69036;SDS011;58547;51.690;5.186;2022-07-03T16:23:02;5.40;;;0.73;;
69036;SDS011;58547;51.690;5.186;2022-07-03T16:25:30;5.40;;;1.02;;
69036;SDS011;58547;51.690;5.186;2022-07-03T16:27:57;5.93;;;1.00;;
69036;SDS011;58547;51.690;5.186;2022-07-03T16:30:24;2.58;;;0.65;;
69036;SDS011;58547;51.690;5.186;2022-07-03T16:32:50;2.42;;;0.85;;
69036;SDS011;58547;51.690;5.186;2022-07-03T16:35:20;5.75;;;1.13;;
69036;SDS011;58547;51.690;5.186;2022-07-03T16:38:00;8.02;;;0.82;;
69036;SDS011;58547;51.690;5.186;2022-07-03T16:40:28;2.95;;;0.60;;
69036;SDS011;58547;51.690;5.186;2022-07-03T16:42:55;3.58;;;1.13;;
69036;SDS011;58547;51.690;5.186;2022-07-03T16:45:22;3.50;;;0.63;;
69036;SDS011;58547;51.690;5.186;2022-07-03T16:47:54;1.33;;;0.50;;
69036;SDS011;58547;51.690;5.186;2022-07-03T16:50:24;2.67;;;0.60;;
69036;SDS011;58547;51.690;5.186;2022-07-03T16:52:52;3.38;;;0.77;;
69036;SDS011;58547;51.690;5.186;2022-07-03T16:55:19;2.00;;;0.70;;
69036;SDS011;58547;51.690;5.186;2022-07-03T16:57:50;1.92;;;0.45;;
69036;SDS011;58547;51.690;5.186;2022-07-03T17:00:19;3.75;;;0.75;;
69036;SDS011;58547;51.690;5.186;2022-07-03T17:02:46;2.95;;;1.00;;
69036;SDS011;58547;51.690;5.186;2022-07-03T17:05:13;1.73;;;0.45;;
69036;SDS011;58547;51.690;5.186;2022-07-03T17:07:40;3.03;;;0.98;;
69036;SDS011;58547;51.690;5.186;2022-07-03T17:10:08;2.85;;;0.68;;
69036;SDS011;58547;51.690;5.186;2022-07-03T17:12:38;3.50;;;0.98;;
69036;SDS011;58547;51.690;5.186;2022-07-03T17:15:06;2.53;;;0.52;;
69036;SDS011;58547;51.690;5.186;2022-07-03T17:17:32;1.88;;;0.57;;
69036;SDS011;58547;51.690;5.186;2022-07-03T17:20:09;1.67;;;0.70;;
69036;SDS011;58547;51.690;5.186;2022-07-03T17:22:41;2.17;;;0.73;;
69036;SDS011;58547;51.690;5.186;2022-07-03T17:25:08;4.70;;;0.73;;
69036;SDS011;58547;51.690;5.186;2022-07-03T17:27:42;3.00;;;0.80;;
69036;SDS011;58547;51.690;5.186;2022-07-03T17:30:08;6.20;;;0.90;;
69036;SDS011;58547;51.690;5.186;2022-07-03T17:32:39;3.25;;;0.77;;
69036;SDS011;58547;51.690;5.186;2022-07-03T17:35:07;3.05;;;0.85;;
69036;SDS011;58547;51.690;5.186;2022-07-03T17:37:41;1.95;;;0.75;;
69036;SDS011;58547;51.690;5.186;2022-07-03T17:40:08;1.52;;;0.70;;
69036;SDS011;58547;51.690;5.186;2022-07-03T17:42:34;3.55;;;1.08;;
69036;SDS011;58547;51.690;5.186;2022-07-03T17:45:00;1.65;;;0.70;;
69036;SDS011;58547;51.690;5.186;2022-07-03T17:47:26;2.72;;;0.88;;
69036;SDS011;58547;51.690;5.186;2022-07-03T17:49:53;3.72;;;1.40;;
69036;SDS011;58547;51.690;5.186;2022-07-03T17:52:18;2.45;;;0.98;;
69036;SDS011;58547;51.690;5.186;2022-07-03T17:54:47;3.60;;;1.17;;
69036;SDS011;58547;51.690;5.186;2022-07-03T17:57:13;3.30;;;1.13;;
69036;SDS011;58547;51.690;5.186;2022-07-03T17:59:58;3.13;;;0.70;;
69036;SDS011;58547;51.690;5.186;2022-07-03T18:02:25;6.45;;;1.75;;
69036;SDS011;58547;51.690;5.186;2022-07-03T18:04:52;3.42;;;1.05;;
69036;SDS011;58547;51.690;5.186;2022-07-03T18:07:20;3.10;;;0.75;;
69036;SDS011;58547;51.690;5.186;2022-07-03T18:09:50;2.22;;;1.08;;
69036;SDS011;58547;51.690;5.186;2022-07-03T18:12:20;1.48;;;0.73;;
69036;SDS011;58547;51.690;5.186;2022-07-03T18:14:52;2.65;;;0.77;;
69036;SDS011;58547;51.690;5.186;2022-07-03T18:17:22;2.70;;;0.98;;
69036;SDS011;58547;51.690;5.186;2022-07-03T18:19:56;7.32;;;1.23;;
69036;SDS011;58547;51.690;5.186;2022-07-03T18:22:26;3.30;;;1.00;;
69036;SDS011;58547;51.690;5.186;2022-07-03T18:24:52;3.10;;;1.25;;
69036;SDS011;58547;51.690;5.186;2022-07-03T18:27:22;1.88;;;0.60;;
69036;SDS011;58547;51.690;5.186;2022-07-03T18:29:48;3.50;;;1.00;;
69036;SDS011;58547;51.690;5.186;2022-07-03T18:32:15;2.58;;;0.60;;
69036;SDS011;58547;51.690;5.186;2022-07-03T18:34:43;4.47;;;1.30;;
69036;SDS011;58547;51.690;5.186;2022-07-03T18:37:14;1.58;;;0.90;;
69036;SDS011;58547;51.690;5.186;2022-07-03T18:39:40;8.07;;;1.35;;
69036;SDS011;58547;51.690;5.186;2022-07-03T18:42:05;2.80;;;1.05;;